createdAt,value
2018-09-25T00:04:20.376Z,82.60
2018-09-25T00:09:29.035Z,82.10
2018-09-25T00:14:37.647Z,81.60
2018-09-25T00:19:46.260Z,82.40
2018-09-25T00:24:54.839Z,83.20
2018-09-25T00:35:18.562Z,84.40
2018-09-25T00:40:27.287Z,86.00
2018-09-25T00:45:35.983Z,86.20
2018-09-25T00:50:44.648Z,89.50
2018-09-25T00:55:53.308Z,90.20
2018-09-25T01:01:02.036Z,89.10
2018-09-25T01:06:10.600Z,88.50
2018-09-25T01:11:19.111Z,88.40
2018-09-25T01:16:27.741Z,87.70
2018-09-25T01:21:36.563Z,86.00
2018-09-25T01:26:45.200Z,86.60
2018-09-25T01:31:53.955Z,87.40
2018-09-25T01:37:03.168Z,88.30
2018-09-25T01:42:12.395Z,89.30
2018-09-25T01:47:21.612Z,88.80
2018-09-25T01:52:30.500Z,89.20
2018-09-25T01:57:39.075Z,89.90
2018-09-25T02:02:47.740Z,90.70
2018-09-25T02:07:56.626Z,89.20
2018-09-25T02:13:05.324Z,90.50
2018-09-25T02:18:14.160Z,91.00
2018-09-25T02:23:22.891Z,92.00
2018-09-25T02:28:31.555Z,93.00
2018-09-25T02:33:40.324Z,94.00
2018-09-25T02:38:49.059Z,91.90
2018-09-25T02:43:57.777Z,92.60
2018-09-25T02:49:06.310Z,93.90
2018-09-25T02:54:15.025Z,93.60
2018-09-25T02:59:23.528Z,92.50
2018-09-25T03:04:32.239Z,92.10
2018-09-25T03:09:40.771Z,91.40
2018-09-25T03:14:49.459Z,93.10
2018-09-25T03:19:58.105Z,94.10
2018-09-25T03:25:10.284Z,95.10
2018-09-25T03:30:19.004Z,94.40
2018-09-25T03:35:27.687Z,93.50
2018-09-25T03:40:36.195Z,94.10
2018-09-25T03:45:44.911Z,93.40
2018-09-25T03:50:53.581Z,95.50
2018-09-25T03:56:02.228Z,95.60
2018-09-25T04:01:10.931Z,95.60
2018-09-25T04:06:19.584Z,95.40
2018-09-25T04:11:28.170Z,96.20
2018-09-25T04:16:36.858Z,94.60
2018-09-25T04:21:45.468Z,94.90
2018-09-25T04:26:54.260Z,94.90
2018-09-25T04:32:02.876Z,95.60
2018-09-25T04:37:11.836Z,97.20
2018-09-25T04:42:20.711Z,96.40
2018-09-25T04:47:29.453Z,96.00
2018-09-25T04:52:38.107Z,96.70
2018-09-25T04:57:46.883Z,97.20
2018-09-25T05:02:55.444Z,96.70
2018-09-25T05:08:04.192Z,97.20
2018-09-25T05:13:12.796Z,97.50
2018-09-25T05:18:21.553Z,97.80
2018-09-25T05:23:30.309Z,97.70
2018-09-25T05:28:38.851Z,96.90
2018-09-25T05:33:47.545Z,96.50
2018-09-25T05:38:56.326Z,95.20
2018-09-25T05:44:05.072Z,95.10
2018-09-25T05:49:13.858Z,94.30
2018-09-25T05:54:22.640Z,93.40
2018-09-25T05:59:31.367Z,91.10
2018-09-25T06:04:40.103Z,86.90
2018-09-25T06:09:48.986Z,77.70
2018-09-25T06:14:57.670Z,69.70
2018-09-25T06:20:06.377Z,68.40
2018-09-25T06:25:15.242Z,64.20
2018-09-25T06:30:24.057Z,62.70
2018-09-25T06:35:32.813Z,63.80
2018-09-25T06:40:41.550Z,61.80
2018-09-25T06:45:50.572Z,61.20
2018-09-25T06:50:59.330Z,60.20
2018-09-25T06:56:09.522Z,58.80
2018-09-25T07:01:18.375Z,58.70
2018-09-25T07:06:27.153Z,57.50
2018-09-25T07:11:36.043Z,57.50
2018-09-25T07:16:44.723Z,59.30
2018-09-25T07:21:53.473Z,58.50
2018-09-25T07:27:02.631Z,55.10
2018-09-25T07:32:11.357Z,56.10
2018-09-25T07:37:20.244Z,57.70
2018-09-25T07:42:29.194Z,56.20
2018-09-25T07:47:37.892Z,57.60
2018-09-25T07:52:46.735Z,59.10
2018-09-25T07:57:55.434Z,60.20
2018-09-25T08:03:04.366Z,62.20
2018-09-25T08:08:12.885Z,60.40
2018-09-25T08:13:21.803Z,59.90
2018-09-25T08:18:30.526Z,59.30
2018-09-25T08:23:39.148Z,61.50
2018-09-25T08:28:47.873Z,63.00
2018-09-25T08:33:56.448Z,63.70
2018-09-25T08:39:05.192Z,61.50
2018-09-25T08:44:13.890Z,63.90
2018-09-25T08:49:22.612Z,63.70
2018-09-25T08:54:31.347Z,62.30
2018-09-25T08:59:39.983Z,64.10
2018-09-25T09:04:48.702Z,63.80
2018-09-25T09:09:57.479Z,64.90
2018-09-25T09:15:06.020Z,63.60
2018-09-25T09:20:14.870Z,63.90
2018-09-25T09:25:23.502Z,64.40
2018-09-25T09:30:32.199Z,64.80
2018-09-25T09:35:41.648Z,65.10
2018-09-25T09:40:50.482Z,59.90
2018-09-25T09:45:59.443Z,62.20
2018-09-25T09:51:08.670Z,60.60
2018-09-25T09:56:17.339Z,62.50
2018-09-25T10:01:25.958Z,56.60
2018-09-25T10:06:34.608Z,55.30
2018-09-25T10:11:43.295Z,59.20
2018-09-25T10:16:52.146Z,56.20
2018-09-25T10:22:02.131Z,55.60
2018-09-25T10:27:11.049Z,53.50
2018-09-25T10:32:19.815Z,52.40
2018-09-25T10:37:28.496Z,52.90
2018-09-25T10:42:37.256Z,51.40
2018-09-25T10:47:45.951Z,49.80
2018-09-25T10:52:54.700Z,47.30
2018-09-25T10:58:03.487Z,48.70
2018-09-25T11:03:12.453Z,48.30
2018-09-25T11:08:21.121Z,47.70
2018-09-25T11:13:29.766Z,45.40
2018-09-25T11:18:38.443Z,45.80
2018-09-25T11:23:47.120Z,43.30
2018-09-25T11:28:55.903Z,43.50
2018-09-25T11:34:04.539Z,44.70
2018-09-25T11:39:13.558Z,44.50
2018-09-25T11:44:22.434Z,45.00
2018-09-25T11:49:31.108Z,44.80
2018-09-25T11:54:39.923Z,44.70
2018-09-25T11:59:48.740Z,43.30
2018-09-25T12:04:57.379Z,42.00
2018-09-25T12:10:06.137Z,41.20
2018-09-25T12:15:14.768Z,42.10
2018-09-25T12:20:23.416Z,41.50
2018-09-25T12:25:31.918Z,38.80
2018-09-25T12:30:40.662Z,40.70
2018-09-25T12:35:49.391Z,41.00
2018-09-25T12:40:58.282Z,41.50
2018-09-25T12:46:08.884Z,44.60
2018-09-25T12:51:17.655Z,39.10
2018-09-25T12:56:26.390Z,41.80
2018-09-25T13:01:35.259Z,39.80
2018-09-25T13:06:44.156Z,39.10
2018-09-25T13:11:52.911Z,40.70
2018-09-25T13:17:03.131Z,39.70
2018-09-25T13:22:12.097Z,40.10
2018-09-25T13:27:20.755Z,39.90
2018-09-25T13:32:29.492Z,39.00
2018-09-25T13:37:38.131Z,39.80
2018-09-25T13:42:46.798Z,40.90
2018-09-25T13:47:56.210Z,41.90
2018-09-25T13:53:04.883Z,41.00
2018-09-25T13:58:13.606Z,44.30
2018-09-25T14:03:22.292Z,42.10
2018-09-25T14:08:30.991Z,42.70
2018-09-25T14:13:39.865Z,41.40
2018-09-25T14:18:48.487Z,41.90
2018-09-25T14:23:57.205Z,43.40
2018-09-25T14:29:05.839Z,42.50
2018-09-25T14:34:14.630Z,42.30
2018-09-25T14:39:23.674Z,41.60
2018-09-25T14:44:32.495Z,41.10
2018-09-25T14:49:41.095Z,43.00
2018-09-25T14:54:49.813Z,44.30
2018-09-25T14:59:58.712Z,44.10
2018-09-25T15:05:09.563Z,44.50
2018-09-25T15:10:18.441Z,42.30
2018-09-25T15:15:28.222Z,42.20
2018-09-25T15:20:36.857Z,41.40
2018-09-25T15:25:45.352Z,41.10
2018-09-25T15:30:54.114Z,40.60
2018-09-25T15:36:02.962Z,42.50
2018-09-25T15:41:12.323Z,42.60
2018-09-25T15:46:21.053Z,44.20
2018-09-25T15:51:29.822Z,44.50
2018-09-25T15:56:38.775Z,44.50
2018-09-25T16:01:47.541Z,44.50
2018-09-25T16:06:56.106Z,43.50
2018-09-25T16:12:04.910Z,44.00
2018-09-25T16:17:13.595Z,44.60
2018-09-25T16:22:22.300Z,45.60
2018-09-25T16:27:31.020Z,44.30
2018-09-25T16:32:39.694Z,43.40
2018-09-25T16:37:48.514Z,42.90
2018-09-25T16:42:57.124Z,43.40
2018-09-25T16:48:05.915Z,43.40
2018-09-25T16:53:14.725Z,47.00
2018-09-25T16:58:23.477Z,48.70
2018-09-25T17:03:32.120Z,49.70
2018-09-25T17:08:41.008Z,50.20
2018-09-25T17:13:49.886Z,51.60
2018-09-25T17:18:58.891Z,53.70
2018-09-25T17:24:09.855Z,54.50
2018-09-25T17:29:18.727Z,57.30
2018-09-25T17:34:27.424Z,55.70
2018-09-25T17:39:36.418Z,54.60
2018-09-25T17:44:45.377Z,55.10
2018-09-25T17:49:54.171Z,56.10
2018-09-25T17:55:03.129Z,56.80
2018-09-25T18:00:12.522Z,57.70
2018-09-25T18:05:28.066Z,59.70
2018-09-25T18:10:36.742Z,60.30
2018-09-25T18:15:45.635Z,61.10
2018-09-25T18:20:54.457Z,61.10
2018-09-25T18:26:03.231Z,61.40
2018-09-25T18:31:12.084Z,63.40
2018-09-25T18:36:20.705Z,64.20
2018-09-25T18:41:29.380Z,64.40
2018-09-25T18:46:37.874Z,65.20
2018-09-25T18:51:46.452Z,65.80
2018-09-25T18:56:55.124Z,66.40
2018-09-25T19:02:03.758Z,66.80
2018-09-25T19:07:12.615Z,67.30
2018-09-25T19:12:21.065Z,67.60
2018-09-25T19:17:29.664Z,68.40
2018-09-25T19:22:38.411Z,69.90
2018-09-25T19:27:47.121Z,69.70
2018-09-25T19:32:55.731Z,69.40
2018-09-25T19:38:04.332Z,69.70
2018-09-25T19:43:12.797Z,70.00
2018-09-25T19:48:21.370Z,69.80
2018-09-25T19:53:29.850Z,70.60
2018-09-25T19:58:38.584Z,71.00
2018-09-25T20:03:47.173Z,71.40
2018-09-25T20:08:55.944Z,71.20
2018-09-25T20:14:04.674Z,72.30
2018-09-25T20:19:13.348Z,72.00
2018-09-25T20:24:21.962Z,72.00
2018-09-25T20:29:30.755Z,72.00
2018-09-25T20:34:39.301Z,71.90
2018-09-25T20:39:48.017Z,72.10
2018-09-25T20:44:56.549Z,72.80
2018-09-25T20:50:05.146Z,73.20
2018-09-25T20:55:14.024Z,73.00
2018-09-25T21:00:22.550Z,73.30
2018-09-25T21:05:31.246Z,73.50
2018-09-25T21:10:39.986Z,74.10
2018-09-25T21:15:48.761Z,73.80
2018-09-25T21:20:57.295Z,73.90
2018-09-25T21:26:05.792Z,73.80
2018-09-25T21:31:14.269Z,74.30
2018-09-25T21:36:22.770Z,76.30
2018-09-25T21:41:31.499Z,77.10
2018-09-25T21:46:40.007Z,77.90
2018-09-25T21:51:49.851Z,77.50
2018-09-25T21:56:58.742Z,77.60
2018-09-25T22:02:09.256Z,78.30
2018-09-25T22:07:18.171Z,78.90
2018-09-25T22:12:27.017Z,80.10
2018-09-25T22:17:35.686Z,80.60
2018-09-25T22:22:44.691Z,81.00
2018-09-25T22:27:53.248Z,81.00
2018-09-25T22:33:02.067Z,81.80
2018-09-25T22:38:10.893Z,82.60
2018-09-25T22:43:19.718Z,83.20
2018-09-25T22:48:28.417Z,83.70
2018-09-25T22:53:36.875Z,84.70
2018-09-25T22:58:45.641Z,85.10
2018-09-25T23:03:54.532Z,84.70
2018-09-25T23:09:03.220Z,85.90
2018-09-25T23:14:11.841Z,86.30
2018-09-25T23:19:20.531Z,85.70
2018-09-25T23:24:29.198Z,85.50
2018-09-25T23:29:37.845Z,85.10
2018-09-25T23:34:46.475Z,84.00
2018-09-25T23:39:57.930Z,84.00
2018-09-25T23:45:05.459Z,83.70
2018-09-25T23:55:26.463Z,84.10
